sensor_id;sensor_type;location;lat;lon;timestamp;P1;durP1;ratioP1;P2;durP2;ratioP2
54557;SDS011;40452;50.080;20.040;2023-05-27T00:02:25;4.30;;;2.40;;
54557;SDS011;40452;50.080;20.040;2023-05-27T00:04:51;7.63;;;2.90;;
54557;SDS011;40452;50.080;20.040;2023-05-27T00:07:16;7.45;;;2.60;;
54557;SDS011;40452;50.080;20.040;2023-05-27T00:09:42;6.80;;;3.08;;
54557;SDS011;40452;50.080;20.040;2023-05-27T00:12:07;5.85;;;3.00;;
54557;SDS011;40452;50.080;20.040;2023-05-27T00:14:33;6.43;;;2.60;;
54557;SDS011;40452;50.080;20.040;2023-05-27T00:16:58;4.93;;;2.40;;
54557;SDS011;40452;50.080;20.040;2023-05-27T00:19:26;4.95;;;2.63;;
54557;SDS011;40452;50.080;20.040;2023-05-27T05:00:31;7.53;;;2.78;;
54557;SDS011;40452;50.080;20.040;2023-05-27T05:03:15;5.80;;;2.47;;
54557;SDS011;40452;50.080;20.040;2023-05-27T05:05:50;3.42;;;2.10;;
54557;SDS011;40452;50.080;20.040;2023-05-27T05:08:17;7.15;;;2.25;;
54557;SDS011;40452;50.080;20.040;2023-05-27T05:10:46;5.07;;;2.28;;
54557;SDS011;40452;50.080;20.040;2023-05-27T05:13:12;6.85;;;2.42;;
54557;SDS011;40452;50.080;20.040;2023-05-27T05:15:38;9.45;;;2.40;;
54557;SDS011;40452;50.080;20.040;2023-05-27T05:18:04;5.28;;;2.47;;
54557;SDS011;40452;50.080;20.040;2023-05-27T05:20:29;7.28;;;2.78;;
54557;SDS011;40452;50.080;20.040;2023-05-27T05:22:55;8.25;;;2.40;;
54557;SDS011;40452;50.080;20.040;2023-05-27T05:25:21;5.38;;;2.50;;
54557;SDS011;40452;50.080;20.040;2023-05-27T05:27:46;10.68;;;2.78;;
54557;SDS011;40452;50.080;20.040;2023-05-27T05:30:12;7.35;;;2.60;;
54557;SDS011;40452;50.080;20.040;2023-05-27T05:32:37;10.65;;;3.08;;
54557;SDS011;40452;50.080;20.040;2023-05-27T05:35:03;5.65;;;2.58;;
54557;SDS011;40452;50.080;20.040;2023-05-27T05:37:36;10.35;;;3.05;;
54557;SDS011;40452;50.080;20.040;2023-05-27T05:40:02;9.75;;;2.90;;
54557;SDS011;40452;50.080;20.040;2023-05-27T05:42:28;9.27;;;3.28;;
54557;SDS011;40452;50.080;20.040;2023-05-27T05:44:53;12.35;;;3.33;;
54557;SDS011;40452;50.080;20.040;2023-05-27T05:47:19;8.65;;;3.20;;
54557;SDS011;40452;50.080;20.040;2023-05-27T05:49:44;8.13;;;3.60;;
54557;SDS011;40452;50.080;20.040;2023-05-27T05:52:10;6.95;;;3.20;;
54557;SDS011;40452;50.080;20.040;2023-05-27T05:54:35;7.10;;;3.30;;
54557;SDS011;40452;50.080;20.040;2023-05-27T05:57:01;7.25;;;3.17;;
54557;SDS011;40452;50.080;20.040;2023-05-27T05:59:30;11.18;;;3.60;;
54557;SDS011;40452;50.080;20.040;2023-05-27T06:01:56;13.85;;;4.10;;
54557;SDS011;40452;50.080;20.040;2023-05-27T06:04:21;14.80;;;3.70;;
54557;SDS011;40452;50.080;20.040;2023-05-27T06:06:47;11.90;;;3.60;;
54557;SDS011;40452;50.080;20.040;2023-05-27T06:09:12;9.45;;;3.38;;
54557;SDS011;40452;50.080;20.040;2023-05-27T06:11:38;11.85;;;4.15;;
54557;SDS011;40452;50.080;20.040;2023-05-27T06:14:03;10.13;;;3.80;;
54557;SDS011;40452;50.080;20.040;2023-05-27T06:16:29;11.30;;;3.15;;
54557;SDS011;40452;50.080;20.040;2023-05-27T06:18:54;7.28;;;2.97;;
54557;SDS011;40452;50.080;20.040;2023-05-27T06:21:20;11.98;;;3.83;;
54557;SDS011;40452;50.080;20.040;2023-05-27T06:23:46;7.18;;;3.45;;
54557;SDS011;40452;50.080;20.040;2023-05-27T06:26:11;8.02;;;3.20;;
54557;SDS011;40452;50.080;20.040;2023-05-27T06:28:37;10.60;;;3.80;;
54557;SDS011;40452;50.080;20.040;2023-05-27T06:31:03;7.07;;;3.15;;
54557;SDS011;40452;50.080;20.040;2023-05-27T06:33:28;9.13;;;3.80;;
54557;SDS011;40452;50.080;20.040;2023-05-27T06:35:54;16.20;;;4.05;;
54557;SDS011;40452;50.080;20.040;2023-05-27T06:38:20;10.45;;;3.25;;
54557;SDS011;40452;50.080;20.040;2023-05-27T06:40:45;8.55;;;3.20;;
54557;SDS011;40452;50.080;20.040;2023-05-27T06:43:11;13.63;;;3.67;;
54557;SDS011;40452;50.080;20.040;2023-05-27T06:45:36;9.23;;;3.13;;
54557;SDS011;40452;50.080;20.040;2023-05-27T06:48:02;10.80;;;3.28;;
54557;SDS011;40452;50.080;20.040;2023-05-27T06:50:27;10.88;;;3.50;;
54557;SDS011;40452;50.080;20.040;2023-05-27T06:52:53;5.65;;;3.03;;
54557;SDS011;40452;50.080;20.040;2023-05-27T06:55:18;8.80;;;3.42;;
54557;SDS011;40452;50.080;20.040;2023-05-27T06:57:44;9.70;;;3.15;;
54557;SDS011;40452;50.080;20.040;2023-05-27T07:00:10;8.60;;;3.70;;
54557;SDS011;40452;50.080;20.040;2023-05-27T07:02:36;7.90;;;3.10;;
54557;SDS011;40452;50.080;20.040;2023-05-27T07:05:04;11.40;;;3.15;;
54557;SDS011;40452;50.080;20.040;2023-05-27T07:07:32;10.95;;;3.50;;
54557;SDS011;40452;50.080;20.040;2023-05-27T07:09:58;8.88;;;3.00;;
54557;SDS011;40452;50.080;20.040;2023-05-27T07:12:26;7.88;;;2.85;;
54557;SDS011;40452;50.080;20.040;2023-05-27T07:14:51;9.05;;;3.05;;
54557;SDS011;40452;50.080;20.040;2023-05-27T07:17:19;10.57;;;2.95;;
54557;SDS011;40452;50.080;20.040;2023-05-27T07:19:45;7.65;;;3.10;;
54557;SDS011;40452;50.080;20.040;2023-05-27T07:22:10;6.55;;;2.90;;
54557;SDS011;40452;50.080;20.040;2023-05-27T07:24:36;7.15;;;3.10;;
54557;SDS011;40452;50.080;20.040;2023-05-27T07:27:01;7.18;;;3.03;;
54557;SDS011;40452;50.080;20.040;2023-05-27T07:29:27;5.63;;;2.85;;
54557;SDS011;40452;50.080;20.040;2023-05-27T07:31:53;11.15;;;3.20;;
54557;SDS011;40452;50.080;20.040;2023-05-27T07:34:18;9.45;;;2.85;;
54557;SDS011;40452;50.080;20.040;2023-05-27T07:36:45;6.88;;;2.83;;
54557;SDS011;40452;50.080;20.040;2023-05-27T07:39:11;17.05;;;3.00;;
54557;SDS011;40452;50.080;20.040;2023-05-27T07:41:36;6.03;;;2.75;;
54557;SDS011;40452;50.080;20.040;2023-05-27T07:44:02;5.20;;;2.72;;
54557;SDS011;40452;50.080;20.040;2023-05-27T07:46:27;5.32;;;2.65;;
54557;SDS011;40452;50.080;20.040;2023-05-27T07:48:53;10.05;;;2.80;;
54557;SDS011;40452;50.080;20.040;2023-05-27T07:51:18;7.50;;;3.00;;
54557;SDS011;40452;50.080;20.040;2023-05-27T07:53:44;6.53;;;2.80;;
54557;SDS011;40452;50.080;20.040;2023-05-27T07:56:10;6.78;;;2.90;;
54557;SDS011;40452;50.080;20.040;2023-05-27T07:58:35;12.13;;;3.00;;
54557;SDS011;40452;50.080;20.040;2023-05-27T08:01:01;9.38;;;3.28;;
54557;SDS011;40452;50.080;20.040;2023-05-27T08:03:26;9.38;;;2.88;;
54557;SDS011;40452;50.080;20.040;2023-05-27T08:05:52;10.07;;;3.20;;
54557;SDS011;40452;50.080;20.040;2023-05-27T08:08:17;7.57;;;3.05;;
54557;SDS011;40452;50.080;20.040;2023-05-27T08:10:43;9.10;;;3.90;;
54557;SDS011;40452;50.080;20.040;2023-05-27T08:13:09;13.65;;;3.88;;
54557;SDS011;40452;50.080;20.040;2023-05-27T08:15:35;9.88;;;3.85;;
54557;SDS011;40452;50.080;20.040;2023-05-27T08:18:00;8.38;;;3.60;;
54557;SDS011;40452;50.080;20.040;2023-05-27T08:20:26;14.18;;;4.72;;
54557;SDS011;40452;50.080;20.040;2023-05-27T08:22:52;20.15;;;5.63;;
54557;SDS011;40452;50.080;20.040;2023-05-27T08:25:18;12.70;;;4.68;;
54557;SDS011;40452;50.080;20.040;2023-05-27T08:27:53;8.98;;;4.60;;
54557;SDS011;40452;50.080;20.040;2023-05-27T08:30:23;10.20;;;4.18;;
54557;SDS011;40452;50.080;20.040;2023-05-27T08:32:49;13.52;;;4.88;;
54557;SDS011;40452;50.080;20.040;2023-05-27T08:35:14;11.07;;;5.10;;
54557;SDS011;40452;50.080;20.040;2023-05-27T08:37:42;9.07;;;4.38;;
54557;SDS011;40452;50.080;20.040;2023-05-27T08:40:10;11.23;;;4.40;;
54557;SDS011;40452;50.080;20.040;2023-05-27T08:42:37;10.48;;;4.82;;
54557;SDS011;40452;50.080;20.040;2023-05-27T08:45:04;11.75;;;4.85;;
54557;SDS011;40452;50.080;20.040;2023-05-27T08:47:30;11.43;;;4.70;;
54557;SDS011;40452;50.080;20.040;2023-05-27T08:49:56;11.68;;;5.03;;
54557;SDS011;40452;50.080;20.040;2023-05-27T08:52:23;11.00;;;5.00;;
54557;SDS011;40452;50.080;20.040;2023-05-27T08:54:51;12.38;;;5.00;;
54557;SDS011;40452;50.080;20.040;2023-05-27T08:57:19;12.32;;;5.38;;
54557;SDS011;40452;50.080;20.040;2023-05-27T08:59:46;10.45;;;5.25;;
54557;SDS011;40452;50.080;20.040;2023-05-27T09:02:13;12.40;;;4.90;;
54557;SDS011;40452;50.080;20.040;2023-05-27T09:04:39;13.80;;;4.88;;
54557;SDS011;40452;50.080;20.040;2023-05-27T09:07:05;10.50;;;5.22;;
54557;SDS011;40452;50.080;20.040;2023-05-27T09:09:31;12.75;;;6.10;;
54557;SDS011;40452;50.080;20.040;2023-05-27T09:12:01;13.23;;;4.95;;
54557;SDS011;40452;50.080;20.040;2023-05-27T09:14:28;11.48;;;5.18;;
54557;SDS011;40452;50.080;20.040;2023-05-27T09:16:54;10.40;;;5.22;;
54557;SDS011;40452;50.080;20.040;2023-05-27T09:19:20;11.77;;;5.45;;
54557;SDS011;40452;50.080;20.040;2023-05-27T09:21:46;15.82;;;5.50;;
54557;SDS011;40452;50.080;20.040;2023-05-27T09:24:12;12.13;;;5.00;;
54557;SDS011;40452;50.080;20.040;2023-05-27T09:26:38;12.38;;;5.25;;
54557;SDS011;40452;50.080;20.040;2023-05-27T09:29:07;12.35;;;5.55;;
54557;SDS011;40452;50.080;20.040;2023-05-27T09:31:39;16.85;;;5.65;;
54557;SDS011;40452;50.080;20.040;2023-05-27T09:36:47;13.60;;;5.70;;
54557;SDS011;40452;50.080;20.040;2023-05-27T09:39:14;14.70;;;5.43;;
54557;SDS011;40452;50.080;20.040;2023-05-27T09:41:41;13.02;;;5.40;;
54557;SDS011;40452;50.080;20.040;2023-05-27T09:44:07;13.40;;;4.97;;
54557;SDS011;40452;50.080;20.040;2023-05-27T09:46:33;12.05;;;5.05;;
54557;SDS011;40452;50.080;20.040;2023-05-27T09:49:00;13.80;;;5.20;;
54557;SDS011;40452;50.080;20.040;2023-05-27T09:51:27;12.95;;;5.38;;
54557;SDS011;40452;50.080;20.040;2023-05-27T09:53:53;10.93;;;4.63;;
54557;SDS011;40452;50.080;20.040;2023-05-27T09:56:23;10.75;;;4.65;;
54557;SDS011;40452;50.080;20.040;2023-05-27T09:58:49;12.77;;;4.65;;
54557;SDS011;40452;50.080;20.040;2023-05-27T10:01:15;12.93;;;4.50;;
54557;SDS011;40452;50.080;20.040;2023-05-27T10:03:42;11.38;;;4.53;;
54557;SDS011;40452;50.080;20.040;2023-05-27T10:06:09;10.88;;;4.78;;
54557;SDS011;40452;50.080;20.040;2023-05-27T10:08:38;11.82;;;4.63;;
54557;SDS011;40452;50.080;20.040;2023-05-27T10:11:03;11.60;;;4.80;;
54557;SDS011;40452;50.080;20.040;2023-05-27T10:13:29;11.82;;;4.40;;
54557;SDS011;40452;50.080;20.040;2023-05-27T10:15:55;14.40;;;4.13;;
54557;SDS011;40452;50.080;20.040;2023-05-27T10:18:21;12.35;;;4.53;;
54557;SDS011;40452;50.080;20.040;2023-05-27T10:23:19;15.05;;;4.18;;
54557;SDS011;40452;50.080;20.040;2023-05-27T10:25:50;13.40;;;4.50;;
54557;SDS011;40452;50.080;20.040;2023-05-27T10:28:26;15.55;;;4.72;;
54557;SDS011;40452;50.080;20.040;2023-05-27T10:31:04;11.48;;;4.50;;
54557;SDS011;40452;50.080;20.040;2023-05-27T10:33:35;9.68;;;4.25;;
54557;SDS011;40452;50.080;20.040;2023-05-27T10:36:12;13.98;;;4.20;;
54557;SDS011;40452;50.080;20.040;2023-05-27T10:38:40;12.23;;;4.32;;
54557;SDS011;40452;50.080;20.040;2023-05-27T10:41:07;13.35;;;4.88;;
54557;SDS011;40452;50.080;20.040;2023-05-27T10:43:33;7.88;;;3.90;;
54557;SDS011;40452;50.080;20.040;2023-05-27T10:46:03;9.93;;;4.00;;
54557;SDS011;40452;50.080;20.040;2023-05-27T10:48:30;12.80;;;4.13;;
54557;SDS011;40452;50.080;20.040;2023-05-27T10:50:59;15.00;;;4.32;;
54557;SDS011;40452;50.080;20.040;2023-05-27T10:53:26;12.60;;;3.97;;
54557;SDS011;40452;50.080;20.040;2023-05-27T10:55:52;14.63;;;4.40;;
54557;SDS011;40452;50.080;20.040;2023-05-27T10:58:19;11.52;;;4.07;;
54557;SDS011;40452;50.080;20.040;2023-05-27T11:00:47;18.25;;;5.78;;
54557;SDS011;40452;50.080;20.040;2023-05-27T11:03:41;14.30;;;5.43;;
54557;SDS011;40452;50.080;20.040;2023-05-27T11:06:06;19.98;;;6.22;;
54557;SDS011;40452;50.080;20.040;2023-05-27T11:08:32;15.05;;;5.75;;
54557;SDS011;40452;50.080;20.040;2023-05-27T11:11:02;16.23;;;5.55;;
54557;SDS011;40452;50.080;20.040;2023-05-27T11:13:36;18.40;;;5.43;;
54557;SDS011;40452;50.080;20.040;2023-05-27T11:16:05;14.02;;;5.50;;
54557;SDS011;40452;50.080;20.040;2023-05-27T11:18:35;18.15;;;5.63;;
54557;SDS011;40452;50.080;20.040;2023-05-27T11:21:00;16.10;;;5.60;;
54557;SDS011;40452;50.080;20.040;2023-05-27T11:23:40;20.85;;;6.00;;
54557;SDS011;40452;50.080;20.040;2023-05-27T11:26:11;15.77;;;6.13;;
54557;SDS011;40452;50.080;20.040;2023-05-27T11:28:56;17.20;;;5.55;;
54557;SDS011;40452;50.080;20.040;2023-05-27T11:31:29;15.32;;;6.18;;
54557;SDS011;40452;50.080;20.040;2023-05-27T11:33:56;11.73;;;5.63;;
54557;SDS011;40452;50.080;20.040;2023-05-27T11:36:24;14.15;;;5.88;;
54557;SDS011;40452;50.080;20.040;2023-05-27T11:38:54;18.25;;;5.32;;
54557;SDS011;40452;50.080;20.040;2023-05-27T11:41:25;11.65;;;6.00;;
54557;SDS011;40452;50.080;20.040;2023-05-27T11:46:23;14.95;;;5.90;;
54557;SDS011;40452;50.080;20.040;2023-05-27T11:48:49;18.48;;;6.18;;
54557;SDS011;40452;50.080;20.040;2023-05-27T11:51:15;16.15;;;6.30;;
54557;SDS011;40452;50.080;20.040;2023-05-27T11:53:43;17.33;;;6.30;;
54557;SDS011;40452;50.080;20.040;2023-05-27T11:56:09;11.10;;;5.78;;
54557;SDS011;40452;50.080;20.040;2023-05-27T11:58:35;12.55;;;5.53;;
54557;SDS011;40452;50.080;20.040;2023-05-27T12:01:01;13.38;;;5.55;;
54557;SDS011;40452;50.080;20.040;2023-05-27T12:03:28;15.05;;;5.80;;
54557;SDS011;40452;50.080;20.040;2023-05-27T12:05:53;12.32;;;5.20;;
54557;SDS011;40452;50.080;20.040;2023-05-27T12:08:19;14.63;;;5.60;;
54557;SDS011;40452;50.080;20.040;2023-05-27T12:10:44;16.02;;;6.25;;
54557;SDS011;40452;50.080;20.040;2023-05-27T12:13:15;10.43;;;5.20;;
54557;SDS011;40452;50.080;20.040;2023-05-27T12:15:40;14.80;;;6.47;;
54557;SDS011;40452;50.080;20.040;2023-05-27T12:18:06;10.65;;;5.30;;
54557;SDS011;40452;50.080;20.040;2023-05-27T12:20:31;12.68;;;4.90;;
54557;SDS011;40452;50.080;20.040;2023-05-27T12:22:58;14.57;;;5.30;;
54557;SDS011;40452;50.080;20.040;2023-05-27T12:25:24;15.13;;;5.80;;
54557;SDS011;40452;50.080;20.040;2023-05-27T12:27:50;10.32;;;5.18;;
54557;SDS011;40452;50.080;20.040;2023-05-27T12:30:16;11.95;;;5.05;;
54557;SDS011;40452;50.080;20.040;2023-05-27T12:32:41;11.80;;;5.00;;
54557;SDS011;40452;50.080;20.040;2023-05-27T12:35:07;15.48;;;5.38;;
54557;SDS011;40452;50.080;20.040;2023-05-27T12:37:33;10.55;;;4.53;;
54557;SDS011;40452;50.080;20.040;2023-05-27T12:39:58;11.48;;;5.03;;
54557;SDS011;40452;50.080;20.040;2023-05-27T12:42:24;11.13;;;4.63;;
54557;SDS011;40452;50.080;20.040;2023-05-27T12:44:49;10.90;;;4.35;;
54557;SDS011;40452;50.080;20.040;2023-05-27T12:47:15;13.13;;;4.78;;
54557;SDS011;40452;50.080;20.040;2023-05-27T12:49:40;12.38;;;5.00;;
54557;SDS011;40452;50.080;20.040;2023-05-27T12:52:07;13.70;;;4.80;;
54557;SDS011;40452;50.080;20.040;2023-05-27T12:54:33;10.68;;;4.68;;
54557;SDS011;40452;50.080;20.040;2023-05-27T12:56:58;12.25;;;5.18;;
54557;SDS011;40452;50.080;20.040;2023-05-27T12:59:26;10.57;;;4.68;;
54557;SDS011;40452;50.080;20.040;2023-05-27T13:01:52;9.13;;;4.60;;
54557;SDS011;40452;50.080;20.040;2023-05-27T13:04:17;9.07;;;4.60;;
54557;SDS011;40452;50.080;20.040;2023-05-27T13:06:43;9.57;;;5.10;;
54557;SDS011;40452;50.080;20.040;2023-05-27T13:09:08;10.35;;;4.93;;
54557;SDS011;40452;50.080;20.040;2023-05-27T13:11:34;10.73;;;4.85;;
54557;SDS011;40452;50.080;20.040;2023-05-27T13:13:59;8.63;;;4.55;;
54557;SDS011;40452;50.080;20.040;2023-05-27T13:16:25;9.45;;;4.40;;
54557;SDS011;40452;50.080;20.040;2023-05-27T13:18:57;9.20;;;4.47;;
54557;SDS011;40452;50.080;20.040;2023-05-27T13:21:22;14.20;;;4.32;;
54557;SDS011;40452;50.080;20.040;2023-05-27T13:23:47;10.05;;;4.47;;
54557;SDS011;40452;50.080;20.040;2023-05-27T13:26:13;12.32;;;4.60;;
54557;SDS011;40452;50.080;20.040;2023-05-27T13:28:39;8.25;;;4.00;;
54557;SDS011;40452;50.080;20.040;2023-05-27T13:31:06;9.15;;;4.43;;
54557;SDS011;40452;50.080;20.040;2023-05-27T13:33:32;16.73;;;4.25;;
54557;SDS011;40452;50.080;20.040;2023-05-27T13:35:57;14.77;;;5.18;;
54557;SDS011;40452;50.080;20.040;2023-05-27T13:38:23;14.25;;;4.68;;
54557;SDS011;40452;50.080;20.040;2023-05-27T13:40:49;11.45;;;4.90;;
54557;SDS011;40452;50.080;20.040;2023-05-27T13:43:15;12.57;;;4.85;;
54557;SDS011;40452;50.080;20.040;2023-05-27T13:45:41;12.95;;;4.30;;
54557;SDS011;40452;50.080;20.040;2023-05-27T13:48:09;9.52;;;4.15;;
54557;SDS011;40452;50.080;20.040;2023-05-27T13:50:37;10.23;;;4.47;;
54557;SDS011;40452;50.080;20.040;2023-05-27T13:53:03;10.35;;;4.57;;
54557;SDS011;40452;50.080;20.040;2023-05-27T13:55:29;15.20;;;3.95;;
54557;SDS011;40452;50.080;20.040;2023-05-27T13:57:55;6.93;;;3.60;;
54557;SDS011;40452;50.080;20.040;2023-05-27T14:00:30;7.22;;;3.30;;
54557;SDS011;40452;50.080;20.040;2023-05-27T14:02:57;6.72;;;3.58;;
54557;SDS011;40452;50.080;20.040;2023-05-27T14:05:28;7.70;;;3.45;;
54557;SDS011;40452;50.080;20.040;2023-05-27T14:08:01;7.25;;;3.50;;
54557;SDS011;40452;50.080;20.040;2023-05-27T14:10:28;7.40;;;3.38;;
54557;SDS011;40452;50.080;20.040;2023-05-27T14:12:57;6.93;;;3.10;;
54557;SDS011;40452;50.080;20.040;2023-05-27T14:15:22;7.35;;;3.30;;
54557;SDS011;40452;50.080;20.040;2023-05-27T14:17:52;7.45;;;3.10;;
54557;SDS011;40452;50.080;20.040;2023-05-27T14:20:18;6.00;;;2.90;;
54557;SDS011;40452;50.080;20.040;2023-05-27T14:22:48;6.70;;;3.10;;
54557;SDS011;40452;50.080;20.040;2023-05-27T14:25:17;4.45;;;2.42;;
54557;SDS011;40452;50.080;20.040;2023-05-27T14:27:47;7.65;;;2.90;;
54557;SDS011;40452;50.080;20.040;2023-05-27T14:30:16;9.18;;;2.50;;
54557;SDS011;40452;50.080;20.040;2023-05-27T14:32:44;9.25;;;2.70;;
54557;SDS011;40452;50.080;20.040;2023-05-27T14:35:10;5.03;;;2.78;;
54557;SDS011;40452;50.080;20.040;2023-05-27T14:37:36;4.78;;;2.53;;
54557;SDS011;40452;50.080;20.040;2023-05-27T14:42:58;5.75;;;2.45;;
54557;SDS011;40452;50.080;20.040;2023-05-27T14:45:24;4.90;;;2.20;;
54557;SDS011;40452;50.080;20.040;2023-05-27T14:47:50;4.50;;;2.53;;
54557;SDS011;40452;50.080;20.040;2023-05-27T14:50:16;4.55;;;2.33;;
54557;SDS011;40452;50.080;20.040;2023-05-27T14:52:42;3.60;;;2.00;;
54557;SDS011;40452;50.080;20.040;2023-05-27T14:55:08;4.32;;;2.10;;
54557;SDS011;40452;50.080;20.040;2023-05-27T14:57:33;4.10;;;1.95;;
54557;SDS011;40452;50.080;20.040;2023-05-27T15:00:02;3.00;;;1.92;;
54557;SDS011;40452;50.080;20.040;2023-05-27T15:02:33;3.38;;;2.13;;
54557;SDS011;40452;50.080;20.040;2023-05-27T15:05:02;4.97;;;2.00;;
54557;SDS011;40452;50.080;20.040;2023-05-27T15:07:31;3.75;;;1.90;;
54557;SDS011;40452;50.080;20.040;2023-05-27T15:09:57;5.53;;;1.90;;
54557;SDS011;40452;50.080;20.040;2023-05-27T15:12:23;7.25;;;2.15;;
54557;SDS011;40452;50.080;20.040;2023-05-27T15:14:48;4.13;;;2.17;;
54557;SDS011;40452;50.080;20.040;2023-05-27T15:17:14;4.55;;;2.00;;
54557;SDS011;40452;50.080;20.040;2023-05-27T15:19:40;4.13;;;2.28;;
54557;SDS011;40452;50.080;20.040;2023-05-27T15:22:06;4.13;;;2.08;;
54557;SDS011;40452;50.080;20.040;2023-05-27T15:24:34;5.70;;;2.10;;
54557;SDS011;40452;50.080;20.040;2023-05-27T15:27:00;4.43;;;2.28;;
54557;SDS011;40452;50.080;20.040;2023-05-27T15:29:27;2.95;;;1.70;;
54557;SDS011;40452;50.080;20.040;2023-05-27T15:31:53;4.50;;;2.17;;
54557;SDS011;40452;50.080;20.040;2023-05-27T15:34:18;3.53;;;1.90;;
54557;SDS011;40452;50.080;20.040;2023-05-27T15:36:46;4.43;;;1.98;;
54557;SDS011;40452;50.080;20.040;2023-05-27T15:39:12;3.05;;;1.90;;
54557;SDS011;40452;50.080;20.040;2023-05-27T15:41:37;3.67;;;2.08;;
54557;SDS011;40452;50.080;20.040;2023-05-27T15:44:03;6.07;;;2.20;;
54557;SDS011;40452;50.080;20.040;2023-05-27T15:46:29;3.38;;;1.83;;
54557;SDS011;40452;50.080;20.040;2023-05-27T15:48:54;3.50;;;1.92;;
54557;SDS011;40452;50.080;20.040;2023-05-27T15:51:20;3.60;;;2.20;;
54557;SDS011;40452;50.080;20.040;2023-05-27T15:53:46;2.90;;;2.00;;
54557;SDS011;40452;50.080;20.040;2023-05-27T15:56:11;4.85;;;1.83;;
54557;SDS011;40452;50.080;20.040;2023-05-27T15:58:37;2.97;;;1.90;;
54557;SDS011;40452;50.080;20.040;2023-05-27T16:01:02;3.95;;;2.22;;
54557;SDS011;40452;50.080;20.040;2023-05-27T16:03:29;4.22;;;2.00;;
54557;SDS011;40452;50.080;20.040;2023-05-27T16:05:55;4.13;;;2.10;;
54557;SDS011;40452;50.080;20.040;2023-05-27T16:08:21;3.70;;;1.98;;
54557;SDS011;40452;50.080;20.040;2023-05-27T16:10:50;4.80;;;2.03;;
54557;SDS011;40452;50.080;20.040;2023-05-27T16:13:18;5.75;;;1.90;;
54557;SDS011;40452;50.080;20.040;2023-05-27T16:15:48;4.22;;;2.25;;
54557;SDS011;40452;50.080;20.040;2023-05-27T16:18:14;7.28;;;2.35;;
54557;SDS011;40452;50.080;20.040;2023-05-27T16:20:41;5.68;;;2.47;;
54557;SDS011;40452;50.080;20.040;2023-05-27T16:23:07;4.00;;;2.25;;
54557;SDS011;40452;50.080;20.040;2023-05-27T16:25:33;8.18;;;2.00;;
54557;SDS011;40452;50.080;20.040;2023-05-27T16:27:59;8.13;;;2.25;;
54557;SDS011;40452;50.080;20.040;2023-05-27T16:30:25;5.35;;;2.50;;
54557;SDS011;40452;50.080;20.040;2023-05-27T16:32:51;4.07;;;1.95;;
54557;SDS011;40452;50.080;20.040;2023-05-27T16:35:17;14.35;;;2.40;;
54557;SDS011;40452;50.080;20.040;2023-05-27T16:37:46;6.82;;;2.20;;
54557;SDS011;40452;50.080;20.040;2023-05-27T16:40:12;6.38;;;2.05;;
54557;SDS011;40452;50.080;20.040;2023-05-27T16:42:38;2.92;;;1.95;;
54557;SDS011;40452;50.080;20.040;2023-05-27T16:45:04;4.93;;;2.38;;
54557;SDS011;40452;50.080;20.040;2023-05-27T16:47:31;4.88;;;2.13;;
54557;SDS011;40452;50.080;20.040;2023-05-27T16:49:56;4.47;;;2.17;;
54557;SDS011;40452;50.080;20.040;2023-05-27T16:52:22;6.57;;;1.90;;
54557;SDS011;40452;50.080;20.040;2023-05-27T16:54:47;3.70;;;2.25;;
54557;SDS011;40452;50.080;20.040;2023-05-27T16:57:13;3.45;;;2.00;;
54557;SDS011;40452;50.080;20.040;2023-05-27T16:59:39;5.25;;;1.95;;
54557;SDS011;40452;50.080;20.040;2023-05-27T17:02:04;7.78;;;2.17;;
54557;SDS011;40452;50.080;20.040;2023-05-27T17:04:30;5.72;;;1.83;;
54557;SDS011;40452;50.080;20.040;2023-05-27T17:06:56;5.15;;;2.00;;
54557;SDS011;40452;50.080;20.040;2023-05-27T17:09:22;5.90;;;2.22;;
54557;SDS011;40452;50.080;20.040;2023-05-27T17:11:47;4.65;;;2.22;;
54557;SDS011;40452;50.080;20.040;2023-05-27T17:14:13;4.10;;;2.00;;
54557;SDS011;40452;50.080;20.040;2023-05-27T17:16:39;2.70;;;1.90;;
54557;SDS011;40452;50.080;20.040;2023-05-27T17:19:04;3.90;;;1.90;;
54557;SDS011;40452;50.080;20.040;2023-05-27T17:21:30;5.55;;;1.88;;
54557;SDS011;40452;50.080;20.040;2023-05-27T17:23:55;3.78;;;1.80;;
54557;SDS011;40452;50.080;20.040;2023-05-27T17:26:21;4.57;;;1.98;;
54557;SDS011;40452;50.080;20.040;2023-05-27T17:28:47;3.30;;;2.00;;
54557;SDS011;40452;50.080;20.040;2023-05-27T17:31:12;2.83;;;1.70;;
54557;SDS011;40452;50.080;20.040;2023-05-27T17:33:38;5.47;;;2.08;;
54557;SDS011;40452;50.080;20.040;2023-05-27T17:36:03;8.70;;;2.15;;
54557;SDS011;40452;50.080;20.040;2023-05-27T17:38:29;4.38;;;2.03;;
54557;SDS011;40452;50.080;20.040;2023-05-27T17:40:55;4.05;;;2.03;;
54557;SDS011;40452;50.080;20.040;2023-05-27T17:43:20;7.35;;;2.33;;
54557;SDS011;40452;50.080;20.040;2023-05-27T17:45:46;7.57;;;2.30;;
54557;SDS011;40452;50.080;20.040;2023-05-27T17:48:12;6.05;;;2.00;;
54557;SDS011;40452;50.080;20.040;2023-05-27T17:50:38;5.05;;;1.83;;
54557;SDS011;40452;50.080;20.040;2023-05-27T17:53:04;10.43;;;2.38;;
54557;SDS011;40452;50.080;20.040;2023-05-27T17:55:29;7.55;;;2.08;;
54557;SDS011;40452;50.080;20.040;2023-05-27T17:57:55;4.65;;;2.08;;
54557;SDS011;40452;50.080;20.040;2023-05-27T18:00:21;4.10;;;1.80;;
54557;SDS011;40452;50.080;20.040;2023-05-27T18:02:46;5.25;;;1.90;;
54557;SDS011;40452;50.080;20.040;2023-05-27T18:05:12;4.18;;;1.90;;
54557;SDS011;40452;50.080;20.040;2023-05-27T18:07:37;6.25;;;2.00;;
54557;SDS011;40452;50.080;20.040;2023-05-27T18:10:03;4.93;;;2.03;;
54557;SDS011;40452;50.080;20.040;2023-05-27T18:12:29;4.07;;;1.75;;
54557;SDS011;40452;50.080;20.040;2023-05-27T18:14:55;5.75;;;2.30;;
54557;SDS011;40452;50.080;20.040;2023-05-27T18:17:20;3.45;;;1.92;;
54557;SDS011;40452;50.080;20.040;2023-05-27T18:19:46;3.42;;;1.67;;
54557;SDS011;40452;50.080;20.040;2023-05-27T18:22:12;5.28;;;1.88;;
54557;SDS011;40452;50.080;20.040;2023-05-27T18:24:38;4.18;;;1.70;;
54557;SDS011;40452;50.080;20.040;2023-05-27T18:27:03;12.07;;;1.88;;
54557;SDS011;40452;50.080;20.040;2023-05-27T18:29:29;4.63;;;1.70;;
54557;SDS011;40452;50.080;20.040;2023-05-27T18:31:55;5.05;;;1.77;;
54557;SDS011;40452;50.080;20.040;2023-05-27T18:34:20;4.97;;;2.00;;
54557;SDS011;40452;50.080;20.040;2023-05-27T18:36:46;6.55;;;2.17;;
54557;SDS011;40452;50.080;20.040;2023-05-27T18:39:12;6.72;;;2.50;;
54557;SDS011;40452;50.080;20.040;2023-05-27T18:41:37;6.25;;;2.08;;
54557;SDS011;40452;50.080;20.040;2023-05-27T18:44:03;3.97;;;1.80;;
54557;SDS011;40452;50.080;20.040;2023-05-27T18:46:29;4.95;;;1.90;;
54557;SDS011;40452;50.080;20.040;2023-05-27T18:48:54;3.15;;;1.92;;
54557;SDS011;40452;50.080;20.040;2023-05-27T18:51:20;4.60;;;2.10;;
54557;SDS011;40452;50.080;20.040;2023-05-27T18:53:46;4.88;;;2.10;;
54557;SDS011;40452;50.080;20.040;2023-05-27T18:56:12;6.57;;;2.20;;
54557;SDS011;40452;50.080;20.040;2023-05-27T18:58:38;5.45;;;2.17;;
54557;SDS011;40452;50.080;20.040;2023-05-27T19:01:04;4.05;;;2.10;;
54557;SDS011;40452;50.080;20.040;2023-05-27T19:03:30;5.18;;;2.30;;
54557;SDS011;40452;50.080;20.040;2023-05-27T19:05:55;3.63;;;2.20;;
54557;SDS011;40452;50.080;20.040;2023-05-27T19:08:21;4.47;;;2.13;;
54557;SDS011;40452;50.080;20.040;2023-05-27T19:10:47;5.88;;;2.17;;
54557;SDS011;40452;50.080;20.040;2023-05-27T19:13:12;3.40;;;2.00;;
54557;SDS011;40452;50.080;20.040;2023-05-27T19:15:38;5.72;;;2.22;;